Time;durP1;ratioP1;P1;durP2;ratioP2;P2;SDS_P1;SDS_P2;PMS_P1;PMS_P2;Temp;Humidity;BMP_temperature;BMP_pressure;BME280_temperature;BME280_humidity;BME280_pressure;Samples;Min_cycle;Max_cycle;Signal;HPM_P1;HPM_P2
2022/01/27 00:06:00;;;;;;;20.72;9.25;;;;;;;-2.10;54.08;99574.81;1734744;82;21148;-40
2022/01/27 00:08:38;;;;;;;13.18;7.20;;;;;;;-2.06;54.19;99573.73;1734428;82;21515;-40
2022/01/27 00:11:02;;;;;;;15.75;8.28;;;;;;;-2.03;54.04;99575.87;1733621;82;21021;-40
2022/01/27 00:13:31;;;;;;;18.17;8.35;;;;;;;-2.05;54.13;99571.34;1734787;82;21519;-40
2022/01/27 00:16:11;;;;;;;14.55;7.37;;;;;;;-2.00;54.18;99583.28;1734895;82;21058;-41
2022/01/27 00:18:29;;;;;;;12.18;5.75;;;;;;;-2.01;54.03;99582.48;1733583;82;21846;-40
2022/01/27 00:20:56;;;;;;;12.13;6.55;;;;;;;-1.98;54.05;99578.48;1729358;82;21579;-40
2022/01/27 00:23:23;;;;;;;8.05;4.60;;;;;;;-1.97;54.31;99571.57;1734690;82;20990;-40
2022/01/27 00:25:50;;;;;;;8.53;4.97;;;;;;;-1.94;54.10;99575.56;1734799;82;20902;-41
2022/01/27 00:28:16;;;;;;;12.43;6.53;;;;;;;-1.95;54.05;99568.66;1735217;82;21015;-41
2022/01/27 00:30:42;;;;;;;15.50;6.42;;;;;;;-1.92;53.91;99564.11;1734740;82;21832;-41
2022/01/27 00:33:09;;;;;;;13.80;5.85;;;;;;;-1.93;53.73;99561.19;1735090;82;20907;-41
2022/01/27 00:35:36;;;;;;;8.95;4.95;;;;;;;-1.98;53.63;99563.86;1734876;82;21001;-41
2022/01/27 00:38:02;;;;;;;11.05;5.67;;;;;;;-2.02;53.59;99562.82;1735089;82;21005;-40
2022/01/27 00:40:30;;;;;;;12.40;5.30;;;;;;;-2.08;53.75;99557.29;1734670;82;20950;-40
2022/01/27 00:42:56;;;;;;;11.05;6.15;;;;;;;-2.15;53.88;99564.20;1734776;82;21978;-40
2022/01/27 00:45:24;;;;;;;11.38;5.75;;;;;;;-2.30;54.15;99561.06;1734768;82;21473;-40
2022/01/27 00:47:51;;;;;;;12.15;5.65;;;;;;;-2.37;54.45;99557.88;1734677;82;20950;-41
2022/01/27 00:50:18;;;;;;;12.73;5.42;;;;;;;-2.37;54.68;99555.79;1734893;82;21006;-41
2022/01/27 00:52:51;;;;;;;10.35;5.42;;;;;;;-2.29;54.53;99555.23;1734697;82;21069;-40
2022/01/27 00:55:16;;;;;;;13.35;5.65;;;;;;;-2.26;54.53;99550.16;1734559;81;21147;-40
2022/01/27 01:00:17;;;;;;;12.03;6.10;;;;;;;-2.10;54.33;99550.91;1689485;82;21598;-40
2022/01/27 01:02:54;;;;;;;10.08;4.97;;;;;;;-2.04;54.32;99551.69;1734929;82;20989;-40
2022/01/27 01:05:49;;;;;;;10.98;5.12;;;;;;;-2.00;54.53;99549.55;1734177;82;21057;-40
2022/01/27 01:08:05;;;;;;;13.05;5.60;;;;;;;-1.95;54.75;99554.04;1731758;82;21508;-40
2022/01/27 01:15:40;;;;;;;8.88;4.60;;;;;;;-1.77;54.51;99541.45;1734683;82;20998;-40
2022/01/27 01:20:52;;;;;;;7.15;4.30;;;;;;;-1.63;54.86;99543.77;1734689;82;21211;-40
2022/01/27 01:33:59;;;;;;;6.42;3.95;;;;;;;-1.55;54.58;99526.47;1735110;82;21776;-40
2022/01/27 01:36:34;;;;;;;7.20;4.15;;;;;;;-1.55;54.68;99531.22;1733036;82;21880;-41
2022/01/27 01:38:46;;;;;;;7.03;4.40;;;;;;;-1.52;54.83;99525.37;1732414;82;20958;-40
2022/01/27 01:41:13;;;;;;;6.42;4.08;;;;;;;-1.51;54.72;99522.98;1734706;82;21092;-40
2022/01/27 01:43:39;;;;;;;9.48;4.80;;;;;;;-1.46;54.81;99522.95;1735620;81;20938;-41
2022/01/27 01:46:06;;;;;;;7.58;4.50;;;;;;;-1.42;54.77;99519.98;1748794;82;21116;-40
2022/01/27 01:48:32;;;;;;;8.70;4.60;;;;;;;-1.40;54.79;99525.80;1748664;82;21017;-40
2022/01/27 01:51:02;;;;;;;9.00;4.50;;;;;;;-1.40;54.82;99524.47;1748805;82;21080;-41
2022/01/27 01:53:30;;;;;;;8.03;4.37;;;;;;;-1.41;54.89;99524.23;1748979;82;21065;-41
2022/01/27 01:55:56;;;;;;;7.28;4.05;;;;;;;-1.46;55.00;99513.64;1748869;82;21069;-40
2022/01/27 01:59:24;;;;;;;8.68;4.53;;;;;;;-1.47;55.32;99512.05;1778506;79;22748;-39
2022/01/27 02:01:51;;;;;;;7.10;4.37;;;;;;;-1.50;55.44;99505.93;1738810;82;20990;-39
2022/01/27 02:04:18;;;;;;;9.50;4.62;;;;;;;-1.48;55.26;99503.80;1738811;82;21136;-39
2022/01/27 02:06:56;;;;;;;11.30;5.03;;;;;;;-1.39;55.38;99497.35;1738778;82;21014;-39
2022/01/27 02:20:11;;;;;;;6.90;4.30;;;;;;;-1.25;55.06;99506.28;1738689;82;21007;-39
2022/01/27 02:22:39;;;;;;;10.40;4.87;;;;;;;-1.33;54.84;99497.58;1738803;82;20931;-39
2022/01/27 02:25:08;;;;;;;8.58;4.87;;;;;;;-1.34;54.90;99491.46;1738790;82;21081;-39
2022/01/27 02:27:35;;;;;;;9.10;5.08;;;;;;;-1.32;54.73;99488.00;1738919;82;21018;-39
2022/01/27 02:30:03;;;;;;;8.83;5.65;;;;;;;-1.32;54.67;99480.56;1738742;82;21098;-39
2022/01/27 02:32:30;;;;;;;11.12;6.20;;;;;;;-1.32;54.50;99482.69;1733681;82;21493;-39
2022/01/27 02:34:57;;;;;;;10.98;5.95;;;;;;;-1.39;54.56;99479.53;1738890;82;20911;-39
2022/01/27 02:37:24;;;;;;;10.28;6.40;;;;;;;-1.44;54.55;99471.59;1738629;82;20986;-39
2022/01/27 02:39:51;;;;;;;13.38;7.20;;;;;;;-1.44;54.74;99478.24;1738671;82;21053;-39
2022/01/27 02:42:33;;;;;;;12.73;6.30;;;;;;;-1.42;54.65;99473.98;1738874;82;21194;-39
2022/01/27 02:45:16;;;;;;;14.10;6.60;;;;;;;-1.44;54.62;99470.80;1738777;82;21045;-39
2022/01/27 02:47:43;;;;;;;13.25;7.45;;;;;;;-1.49;54.97;99471.62;1744508;82;20939;-39
2022/01/27 02:50:10;;;;;;;12.10;7.22;;;;;;;-1.48;55.00;99470.56;1738694;82;21003;-39
2022/01/27 02:52:39;;;;;;;12.95;7.15;;;;;;;-1.43;54.98;99473.19;1739067;82;21524;-39
2022/01/27 02:55:08;;;;;;;12.80;6.65;;;;;;;-1.37;54.97;99477.41;1738255;81;21131;-39
2022/01/27 02:57:35;;;;;;;13.20;7.58;;;;;;;-1.33;55.21;99473.11;1726759;82;21539;-39
2022/01/27 03:00:04;;;;;;;12.68;7.60;;;;;;;-1.33;54.86;99461.14;1727123;83;21732;-39
2022/01/27 03:02:31;;;;;;;11.00;6.90;;;;;;;-1.32;54.97;99461.41;1727007;82;20997;-39
2022/01/27 03:04:58;;;;;;;12.98;6.55;;;;;;;-1.26;54.87;99468.02;1727237;82;21527;-39
2022/01/27 03:07:25;;;;;;;12.15;5.97;;;;;;;-1.25;54.78;99465.06;1726999;83;21530;-39
2022/01/27 03:09:54;;;;;;;10.30;6.05;;;;;;;-1.25;54.79;99462.93;1727973;81;20965;-39
2022/01/27 03:12:24;;;;;;;11.38;6.17;;;;;;;-1.26;54.51;99456.84;1720771;83;20968;-39
2022/01/27 03:14:48;;;;;;;10.82;5.78;;;;;;;-1.27;54.59;99458.45;1720171;83;21032;-39
2022/01/27 03:17:15;;;;;;;11.10;6.45;;;;;;;-1.26;54.48;99460.04;1720544;83;21051;-39
2022/01/27 03:19:42;;;;;;;8.40;5.70;;;;;;;-1.29;54.42;99460.58;1694128;83;21108;-39
2022/01/27 03:22:09;;;;;;;11.75;6.20;;;;;;;-1.31;54.30;99460.31;1720768;83;20924;-39
2022/01/27 03:24:37;;;;;;;13.72;6.95;;;;;;;-1.34;54.33;99466.20;1720552;83;20968;-39
2022/01/27 03:27:12;;;;;;;11.08;6.12;;;;;;;-1.36;54.04;99465.70;1716133;83;21084;-39
2022/01/27 03:29:33;;;;;;;11.65;5.90;;;;;;;-1.43;53.96;99467.08;1719427;83;21040;-39
2022/01/27 03:31:59;;;;;;;9.70;5.45;;;;;;;-1.50;53.89;99455.41;1720947;83;21836;-39
2022/01/27 03:34:26;;;;;;;11.45;5.80;;;;;;;-1.59;53.83;99445.13;1720255;83;20980;-39
2022/01/27 03:36:53;;;;;;;12.37;6.17;;;;;;;-1.64;53.84;99440.38;1720424;83;20960;-39
2022/01/27 03:39:22;;;;;;;10.50;5.50;;;;;;;-1.73;54.05;99434.86;1720484;83;21052;-39
2022/01/27 03:41:53;;;;;;;12.25;5.65;;;;;;;-1.76;53.99;99432.77;1720399;83;21036;-39
2022/01/27 03:44:21;;;;;;;9.08;5.75;;;;;;;-1.81;54.08;99424.30;1720478;83;21220;-39
2022/01/27 03:46:49;;;;;;;11.60;5.87;;;;;;;-1.86;54.08;99420.88;1720532;83;21539;-39
2022/01/27 03:49:16;;;;;;;15.45;6.03;;;;;;;-1.93;54.22;99425.69;1720523;83;20980;-39
2022/01/27 03:51:44;;;;;;;13.88;5.70;;;;;;;-1.99;54.46;99409.02;1720365;83;20968;-39
2022/01/27 03:54:11;;;;;;;12.88;6.15;;;;;;;-2.04;54.56;99415.69;1720471;83;21558;-39
2022/01/27 03:56:38;;;;;;;12.47;6.40;;;;;;;-2.12;54.71;99424.22;1699555;82;21962;-39
2022/01/27 03:59:04;;;;;;;14.63;6.17;;;;;;;-2.18;54.63;99424.01;1672151;85;21563;-39
2022/01/27 04:01:33;;;;;;;10.60;6.25;;;;;;;-2.26;54.67;99412.61;1721189;83;21613;-39
2022/01/27 04:04:00;;;;;;;13.08;6.37;;;;;;;-2.30;54.95;99409.72;1721661;83;20945;-39
2022/01/27 04:06:39;;;;;;;10.13;6.30;;;;;;;-2.41;55.17;99404.19;1721322;82;21512;-39
2022/01/27 04:09:08;;;;;;;16.95;5.67;;;;;;;-2.51;55.51;99399.45;1721340;83;21487;-38
2022/01/27 04:11:35;;;;;;;17.02;7.35;;;;;;;-2.61;55.86;99401.63;1720624;82;21575;-39
2022/01/27 04:14:02;;;;;;;19.75;6.42;;;;;;;-2.67;56.04;99402.20;1721537;83;20930;-39
2022/01/27 04:16:29;;;;;;;18.45;6.42;;;;;;;-2.74;56.11;99410.17;1721278;82;20957;-39
2022/01/27 04:18:56;;;;;;;15.55;5.70;;;;;;;-2.75;56.28;99411.23;1721555;83;21068;-39
2022/01/27 04:21:22;;;;;;;14.10;6.87;;;;;;;-2.73;56.13;99395.32;1721395;83;21149;-39
2022/01/27 04:23:50;;;;;;;17.82;6.72;;;;;;;-2.74;56.33;99404.87;1721195;82;20973;-39
2022/01/27 04:26:21;;;;;;;16.62;6.37;;;;;;;-2.82;56.54;99403.58;1721321;83;20973;-39
2022/01/27 04:28:48;;;;;;;21.27;6.60;;;;;;;-2.90;56.66;99400.14;1721598;83;21020;-39
2022/01/27 04:31:14;;;;;;;18.10;6.37;;;;;;;-2.93;56.60;99391.94;1721311;82;21010;-39
2022/01/27 04:33:41;;;;;;;19.65;6.80;;;;;;;-2.93;56.58;99397.23;1721534;83;21214;-39
2022/01/27 04:36:16;;;;;;;19.90;6.70;;;;;;;-2.97;56.70;99382.94;1721291;83;21540;-38
2022/01/27 04:38:52;;;;;;;20.82;6.85;;;;;;;-2.98;56.87;99383.47;1720271;83;21064;-39
2022/01/27 04:41:24;;;;;;;19.30;6.67;;;;;;;-2.99;56.83;99377.09;1720462;83;21464;-39
2022/01/27 04:43:54;;;;;;;20.27;6.85;;;;;;;-3.04;57.05;99382.41;1720928;83;21009;-38
2022/01/27 04:46:32;;;;;;;17.10;6.33;;;;;;;-3.09;57.24;99378.72;1720538;83;21837;-39
2022/01/27 04:48:52;;;;;;;15.98;6.50;;;;;;;-3.11;57.42;99380.86;1719876;83;20966;-38
2022/01/27 04:51:18;;;;;;;15.68;6.97;;;;;;;-3.11;57.38;99378.20;1720863;83;20993;-38
2022/01/27 04:53:51;;;;;;;23.15;7.37;;;;;;;-3.14;57.44;99376.08;1721508;82;21085;-39
2022/01/27 04:56:14;;;;;;;20.17;6.55;;;;;;;-3.12;57.33;99375.29;1720586;82;21077;-39
2022/01/27 04:58:44;;;;;;;23.52;7.85;;;;;;;-3.07;57.37;99376.59;1752220;81;21130;-39
2022/01/27 05:01:09;;;;;;;18.50;7.30;;;;;;;-3.10;57.46;99372.38;1720505;83;20933;-39
2022/01/27 05:06:03;;;;;;;15.25;6.97;;;;;;;-3.23;57.18;99376.36;1720510;83;21566;-38
2022/01/27 05:08:30;;;;;;;19.15;7.83;;;;;;;-3.27;57.25;99377.97;1720714;83;21503;-38
2022/01/27 05:11:01;;;;;;;20.62;7.70;;;;;;;-3.27;57.40;99372.67;1720585;83;21541;-39
2022/01/27 05:13:28;;;;;;;16.17;7.30;;;;;;;-3.30;57.51;99373.22;1719974;83;21018;-39
2022/01/27 05:15:54;;;;;;;21.20;7.83;;;;;;;-3.38;57.60;99375.06;1720606;83;20985;-38
2022/01/27 05:18:22;;;;;;;16.07;8.08;;;;;;;-3.43;57.82;99375.07;1720284;83;21028;-38
2022/01/27 05:20:48;;;;;;;18.98;7.85;;;;;;;-3.50;58.21;99378.54;1720472;83;21027;-38
2022/01/27 05:23:15;;;;;;;20.57;8.48;;;;;;;-3.52;58.52;99374.02;1720991;83;21142;-38
2022/01/27 05:25:42;;;;;;;20.80;8.38;;;;;;;-3.51;58.67;99378.27;1720410;83;20968;-39
2022/01/27 05:28:08;;;;;;;23.38;8.83;;;;;;;-3.52;58.95;99385.95;1720802;83;20932;-39
2022/01/27 05:30:35;;;;;;;17.55;8.08;;;;;;;-3.53;59.17;99383.03;1720352;83;21036;-39
2022/01/27 05:33:02;;;;;;;14.60;7.60;;;;;;;-3.52;59.29;99380.65;1720734;83;22197;-38
2022/01/27 05:35:29;;;;;;;17.40;8.38;;;;;;;-3.47;59.54;99380.64;1720307;83;21208;-39
2022/01/27 05:37:55;;;;;;;17.85;9.28;;;;;;;-3.35;59.63;99383.03;1720630;83;21538;-38
2022/01/27 05:40:22;;;;;;;16.55;9.20;;;;;;;-3.24;59.63;99384.58;1720556;83;20968;-39
2022/01/27 05:42:48;;;;;;;16.02;9.10;;;;;;;-3.18;59.66;99378.20;1720790;83;21622;-38
2022/01/27 05:45:15;;;;;;;16.05;8.25;;;;;;;-3.11;59.68;99379.53;1720479;83;21087;-38
2022/01/27 05:47:42;;;;;;;18.62;8.85;;;;;;;-3.07;59.73;99377.92;1720422;83;21150;-39
2022/01/27 05:50:09;;;;;;;20.52;9.40;;;;;;;-3.00;59.80;99368.90;1720602;83;21530;-39
2022/01/27 05:52:36;;;;;;;15.88;9.30;;;;;;;-2.97;60.05;99368.34;1720762;83;20964;-39
2022/01/27 05:55:04;;;;;;;21.40;9.45;;;;;;;-2.89;60.05;99371.76;1720537;83;21024;-38
2022/01/27 05:57:31;;;;;;;19.00;9.93;;;;;;;-2.76;60.09;99364.56;1720831;83;21032;-38
2022/01/27 05:59:57;;;;;;;23.92;9.05;;;;;;;-2.64;59.95;99366.36;1716735;82;21128;-38
2022/01/27 06:02:24;;;;;;;25.55;11.65;;;;;;;-2.56;59.86;99365.77;1714943;83;21004;-39
2022/01/27 06:04:51;;;;;;;19.65;10.18;;;;;;;-2.49;59.82;99368.94;1751134;82;21080;-39
2022/01/27 06:07:17;;;;;;;18.85;10.03;;;;;;;-2.40;59.98;99367.83;1751159;82;21029;-39
2022/01/27 06:09:44;;;;;;;20.88;9.93;;;;;;;-2.26;60.04;99368.27;1750988;82;21313;-39
2022/01/27 06:12:11;;;;;;;19.10;10.35;;;;;;;-2.13;59.87;99367.41;1715242;83;21843;-39
2022/01/27 06:14:38;;;;;;;20.10;10.13;;;;;;;-2.05;59.86;99361.50;1750955;81;21057;-38
2022/01/27 06:17:05;;;;;;;22.02;11.00;;;;;;;-1.93;60.04;99353.96;1751485;82;21535;-39
2022/01/27 06:19:32;;;;;;;23.57;11.40;;;;;;;-1.86;59.67;99349.14;1751119;82;21547;-39
2022/01/27 06:21:59;;;;;;;23.50;11.63;;;;;;;-1.79;59.56;99352.25;1751090;82;21536;-39
2022/01/27 06:24:27;;;;;;;24.57;11.08;;;;;;;-1.76;59.54;99349.06;1751155;82;21792;-38
2022/01/27 06:26:56;;;;;;;22.70;11.48;;;;;;;-1.69;59.66;99350.08;1751267;82;21029;-38
2022/01/27 06:29:22;;;;;;;26.97;11.25;;;;;;;-1.62;59.67;99344.68;1751254;82;21531;-38
2022/01/27 06:31:49;;;;;;;32.63;17.42;;;;;;;-1.53;59.54;99344.33;1751362;82;21589;-38
2022/01/27 06:34:15;;;;;;;22.25;11.97;;;;;;;-1.48;59.52;99348.27;1751198;82;21479;-39
2022/01/27 06:36:42;;;;;;;22.90;11.38;;;;;;;-1.42;59.25;99343.16;1751277;82;21539;-39
2022/01/27 06:39:09;;;;;;;22.07;10.63;;;;;;;-1.44;59.28;99341.31;1751112;82;21491;-39
2022/01/27 06:41:35;;;;;;;23.83;11.25;;;;;;;-1.48;59.30;99338.97;1751345;82;21009;-39
2022/01/27 06:44:02;;;;;;;24.55;11.05;;;;;;;-1.53;59.55;99334.23;1751200;82;21057;-39
2022/01/27 06:46:29;;;;;;;23.60;11.08;;;;;;;-1.60;59.81;99333.25;1751263;82;21515;-39
2022/01/27 06:48:55;;;;;;;26.55;12.35;;;;;;;-1.59;60.06;99332.15;1751231;82;21516;-39
2022/01/27 06:51:23;;;;;;;26.37;11.73;;;;;;;-1.55;60.12;99328.42;1751507;82;20978;-38
2022/01/27 06:53:50;;;;;;;29.00;11.60;;;;;;;-1.60;60.29;99323.94;1751257;82;21100;-39
2022/01/27 06:56:16;;;;;;;20.82;12.30;;;;;;;-1.57;60.50;99323.37;1751378;82;21029;-39
2022/01/27 06:58:43;;;;;;;23.62;12.28;;;;;;;-1.49;60.58;99317.43;1750888;82;21014;-40
2022/01/27 07:01:10;;;;;;;20.92;11.93;;;;;;;-1.43;60.55;99318.98;1743288;82;21083;-39
2022/01/27 07:03:37;;;;;;;25.20;12.98;;;;;;;-1.40;60.51;99317.07;1743148;82;20934;-39
2022/01/27 07:06:04;;;;;;;21.93;11.88;;;;;;;-1.39;60.65;99316.00;1743293;82;20922;-39
2022/01/27 07:08:31;;;;;;;21.30;11.28;;;;;;;-1.35;60.77;99305.59;1743334;81;20998;-39
2022/01/27 07:10:58;;;;;;;24.65;12.28;;;;;;;-1.35;60.88;99309.05;1743377;82;20997;-38
2022/01/27 07:13:24;;;;;;;22.37;11.63;;;;;;;-1.39;60.99;99310.69;1743257;82;21129;-39
2022/01/27 07:15:51;;;;;;;20.57;11.25;;;;;;;-1.40;61.24;99303.78;1743359;82;20966;-39
2022/01/27 07:18:18;;;;;;;19.62;11.75;;;;;;;-1.41;61.38;99300.89;1743221;82;21024;-39
2022/01/27 07:20:45;;;;;;;18.23;11.35;;;;;;;-1.40;61.59;99299.79;1743318;82;20973;-39
2022/01/27 07:23:13;;;;;;;21.77;12.13;;;;;;;-1.32;61.70;99300.52;1743435;82;21501;-39
2022/01/27 07:25:39;;;;;;;22.87;12.03;;;;;;;-1.24;61.75;99299.63;1743471;82;21567;-39
2022/01/27 07:28:06;;;;;;;16.82;11.25;;;;;;;-1.21;61.67;99297.19;1743272;82;21085;-39
2022/01/27 07:30:32;;;;;;;18.12;10.88;;;;;;;-1.20;61.78;99290.80;1743604;82;20966;-39
2022/01/27 07:32:59;;;;;;;19.30;12.45;;;;;;;-1.20;61.87;99293.98;1743273;81;21037;-39
2022/01/27 07:35:25;;;;;;;17.60;11.18;;;;;;;-1.20;62.01;99293.98;1743530;82;21084;-39
2022/01/27 07:37:52;;;;;;;24.47;12.73;;;;;;;-1.19;62.15;99286.27;1743250;81;21095;-39
2022/01/27 07:40:19;;;;;;;20.17;12.07;;;;;;;-1.15;62.24;99285.95;1743164;82;21005;-39
2022/01/27 07:42:47;;;;;;;21.07;11.18;;;;;;;-1.15;62.46;99284.63;1743212;82;21091;-39
2022/01/27 07:45:14;;;;;;;19.85;12.00;;;;;;;-1.11;62.58;99283.77;1743493;82;21010;-39
2022/01/27 07:47:41;;;;;;;22.70;12.53;;;;;;;-1.03;62.63;99285.82;1743337;82;21077;-39
2022/01/27 07:50:09;;;;;;;23.85;12.82;;;;;;;-0.95;62.58;99292.36;1743278;82;21516;-39
2022/01/27 07:52:36;;;;;;;21.87;13.22;;;;;;;-0.88;62.63;99292.82;1743320;82;21013;-39
2022/01/27 07:55:05;;;;;;;25.57;13.90;;;;;;;-0.76;62.67;99291.05;1743543;82;21013;-39
2022/01/27 07:57:31;;;;;;;20.32;13.38;;;;;;;-0.72;62.28;99293.39;1743211;82;20986;-39
2022/01/27 07:59:58;;;;;;;22.02;13.15;;;;;;;-0.77;62.58;99290.80;1748482;81;21052;-38
2022/01/27 08:02:25;;;;;;;27.45;15.20;;;;;;;-0.87;62.71;99284.53;1756550;81;21127;-39
2022/01/27 08:04:51;;;;;;;53.05;28.75;;;;;;;-0.98;63.12;99275.12;1756472;81;20972;-39
2022/01/27 08:07:18;;;;;;;23.40;13.88;;;;;;;-0.91;63.22;99290.17;1756648;81;21016;-39
2022/01/27 08:09:47;;;;;;;27.55;13.85;;;;;;;-0.96;63.44;99288.11;1756387;81;21017;-39
2022/01/27 08:12:15;;;;;;;22.65;13.72;;;;;;;-1.04;63.67;99283.44;1756761;81;21037;-39
2022/01/27 08:14:42;;;;;;;22.13;13.80;;;;;;;-1.09;64.04;99272.86;1756440;81;21117;-39
2022/01/27 08:17:09;;;;;;;24.57;13.13;;;;;;;-1.10;64.51;99275.25;1756631;81;20918;-39
2022/01/27 08:19:35;;;;;;;22.70;13.83;;;;;;;-1.07;64.57;99271.51;1756593;81;21539;-39
2022/01/27 08:22:03;;;;;;;23.62;14.38;;;;;;;-0.98;64.60;99269.00;1756398;81;20942;-39
2022/01/27 08:24:30;;;;;;;21.33;13.48;;;;;;;-0.93;64.66;99267.61;1756516;81;21029;-39
2022/01/27 08:27:02;;;;;;;23.42;14.60;;;;;;;-0.91;64.76;99271.55;1756621;81;21653;-39
2022/01/27 08:29:32;;;;;;;20.82;13.95;;;;;;;-0.87;64.93;99269.89;1755876;81;21031;-39
2022/01/27 08:31:59;;;;;;;24.12;14.40;;;;;;;-0.79;65.04;99265.81;1755837;81;20957;-39
2022/01/27 08:34:39;;;;;;;20.45;13.65;;;;;;;-0.70;65.00;99257.97;1756783;81;21025;-39
2022/01/27 08:37:09;;;;;;;26.42;16.57;;;;;;;-0.57;65.08;99262.03;1756564;81;21507;-39
2022/01/27 08:39:37;;;;;;;15.63;11.45;;;;;;;-0.44;64.85;99257.30;1756836;81;21083;-39
2022/01/27 08:42:05;;;;;;;25.95;16.15;;;;;;;-0.41;64.83;99245.83;1756500;81;21542;-39
2022/01/27 08:44:32;;;;;;;29.07;15.35;;;;;;;-0.35;64.82;99252.13;1756818;81;21079;-39
2022/01/27 08:46:59;;;;;;;24.52;15.50;;;;;;;-0.27;64.83;99252.00;1756543;81;20913;-39
2022/01/27 08:49:26;;;;;;;23.30;15.38;;;;;;;-0.20;64.76;99248.44;1756769;81;21037;-39
2022/01/27 08:51:54;;;;;;;24.27;15.68;;;;;;;-0.14;64.69;99246.72;1756660;81;21133;-39
2022/01/27 08:54:21;;;;;;;29.85;16.32;;;;;;;-0.05;64.68;99252.95;1756796;81;21539;-39
2022/01/27 08:56:48;;;;;;;23.15;15.55;;;;;;;-0.01;64.51;99255.31;1756463;81;20994;-39
2022/01/27 08:59:16;;;;;;;25.08;15.80;;;;;;;-0.06;64.74;99249.27;1756735;81;21072;-39
2022/01/27 09:01:44;;;;;;;24.80;15.93;;;;;;;-0.08;64.85;99249.55;1756421;81;21044;-39
2022/01/27 09:04:10;;;;;;;24.98;15.50;;;;;;;-0.06;65.02;99251.94;1756949;81;21095;-39
2022/01/27 09:06:37;;;;;;;28.65;16.17;;;;;;;-0.07;65.21;99254.34;1756394;81;20894;-39
2022/01/27 09:09:05;;;;;;;26.37;15.65;;;;;;;-0.11;65.42;99250.69;1756612;81;21587;-39
2022/01/27 09:11:33;;;;;;;25.08;15.23;;;;;;;-0.11;65.79;99250.69;1756351;81;21559;-39
2022/01/27 09:14:01;;;;;;;23.27;14.80;;;;;;;-0.05;66.00;99249.52;1756846;81;20985;-39
2022/01/27 09:16:29;;;;;;;27.15;15.25;;;;;;;-0.05;65.97;99244.20;1756594;81;21781;-39
2022/01/27 09:19:00;;;;;;;22.00;14.83;;;;;;;0.01;66.23;99239.00;1756607;81;21031;-39
2022/01/27 09:21:40;;;;;;;28.50;15.95;;;;;;;0.07;66.17;99235.18;1756473;81;20973;-39
2022/01/27 09:23:59;;;;;;;22.42;15.35;;;;;;;0.14;66.30;99232.94;1730737;81;21460;-39
2022/01/27 09:26:52;;;;;;;25.57;16.05;;;;;;;0.17;66.28;99231.00;1726491;83;21056;-39
2022/01/27 09:29:15;;;;;;;24.18;16.02;;;;;;;0.21;66.34;99224.53;1725958;82;21574;-39
2022/01/27 09:31:43;;;;;;;24.37;16.35;;;;;;;0.21;66.46;99229.87;1726364;83;20889;-39
2022/01/27 09:34:11;;;;;;;25.50;16.62;;;;;;;0.22;66.42;99238.91;1726728;83;21499;-39
2022/01/27 09:36:38;;;;;;;25.45;15.90;;;;;;;0.21;66.55;99231.99;1726332;82;21033;-39
2022/01/27 09:39:07;;;;;;;23.65;15.50;;;;;;;0.22;66.54;99232.78;1726957;83;21518;-39
2022/01/27 09:41:37;;;;;;;24.12;17.17;;;;;;;0.25;66.76;99227.65;1726378;83;21968;-39
2022/01/27 09:44:08;;;;;;;;;;;;;;;0.36;66.73;99226.92;1729252;83;21012;-39
2022/01/27 09:46:35;;;;;;;33.75;22.20;;;;;;;0.42;66.62;99225.75;1726532;82;20157;-39
2022/01/27 09:49:12;;;;;;;27.48;16.90;;;;;;;0.37;66.79;99213.84;1726614;83;20984;-39
2022/01/27 09:51:43;;;;;;;28.65;17.10;;;;;;;0.40;66.84;99218.03;1725981;82;21535;-39
2022/01/27 09:54:09;;;;;;;25.95;17.27;;;;;;;0.43;66.72;99213.47;1726607;82;21910;-39
2022/01/27 09:56:43;;;;;;;29.05;18.75;;;;;;;0.38;66.82;99216.23;1746766;81;21030;-39
2022/01/27 09:59:10;;;;;;;25.12;17.52;;;;;;;0.34;66.89;99215.21;1756459;81;20978;-39
2022/01/27 10:01:38;;;;;;;26.62;17.32;;;;;;;0.22;67.32;99206.13;1745943;81;20933;-39
2022/01/27 10:04:07;;;;;;;26.95;19.05;;;;;;;0.20;67.52;99209.08;1743237;82;21032;-39
2022/01/27 10:06:35;;;;;;;29.40;19.37;;;;;;;0.18;67.86;99204.60;1744204;81;21194;-39
2022/01/27 10:09:20;;;;;;;27.37;18.40;;;;;;;0.19;68.11;99210.73;1763611;81;21004;-39
2022/01/27 10:11:49;;;;;;;27.27;18.65;;;;;;;0.21;68.18;99204.00;1763830;81;21607;-39
2022/01/27 10:14:33;;;;;;;29.07;19.15;;;;;;;0.19;68.50;99208.85;1763731;81;20950;-39
2022/01/27 10:17:03;;;;;;;22.13;14.58;;;;;;;0.17;68.62;99193.69;1763781;81;21037;-39
2022/01/27 10:19:31;;;;;;;27.22;18.45;;;;;;;0.14;68.95;99200.16;1763807;81;21150;-39
2022/01/27 10:22:04;;;;;;;28.62;18.95;;;;;;;0.14;69.06;99194.28;1764033;81;21067;-39
2022/01/27 10:24:33;;;;;;;26.62;19.05;;;;;;;0.17;69.13;99185.69;1763831;81;21012;-39
2022/01/27 10:27:32;;;;;;;31.53;20.90;;;;;;;0.19;69.23;99188.06;1764265;81;20990;-40
2022/01/27 10:32:46;;;;;;;31.30;20.60;;;;;;;0.27;69.38;99176.70;1764039;81;21073;-39
2022/01/27 10:35:15;;;;;;;28.83;19.40;;;;;;;0.26;69.46;99179.13;1763977;81;21071;-39
2022/01/27 10:38:05;;;;;;;28.87;18.98;;;;;;;0.24;69.80;99180.74;1763823;81;20973;-39
2022/01/27 10:40:37;;;;;;;29.48;19.30;;;;;;;0.31;69.95;99167.82;1763710;81;20969;-39
2022/01/27 10:43:14;;;;;;;29.92;19.17;;;;;;;0.37;69.98;99167.97;1764056;81;21026;-39
2022/01/27 10:46:20;;;;;;;34.70;22.95;;;;;;;0.43;69.99;99176.13;1763978;81;21846;-39
2022/01/27 10:48:54;;;;;;;30.68;20.23;;;;;;;0.46;70.15;99168.06;1763019;81;20922;-39
2022/01/27 10:51:23;;;;;;;30.60;19.85;;;;;;;0.50;70.27;99158.38;1763373;81;20961;-39
2022/01/27 10:54:06;;;;;;;30.27;21.35;;;;;;;0.54;70.63;99157.23;1763464;81;20957;-39
2022/01/27 10:56:31;;;;;;;29.40;20.83;;;;;;;0.61;70.64;99160.30;1732338;81;21050;-39
2022/01/27 10:59:01;;;;;;;32.55;21.00;;;;;;;0.67;70.68;99159.11;1706967;82;21083;-39
2022/01/27 11:01:33;;;;;;;30.72;21.85;;;;;;;0.75;70.75;99151.18;1713742;82;21521;-39
2022/01/27 11:04:03;;;;;;;35.83;22.42;;;;;;;0.85;70.70;99146.17;1713021;82;21002;-39
2022/01/27 11:06:33;;;;;;;47.05;30.68;;;;;;;0.94;70.56;99145.70;1713618;83;21061;-40
2022/01/27 11:09:07;;;;;;;41.00;26.30;;;;;;;1.03;70.50;99149.23;1717708;81;20998;-39
2022/01/27 11:11:32;;;;;;;31.17;22.22;;;;;;;1.09;70.46;99146.69;1771514;81;20930;-39
2022/01/27 11:13:59;;;;;;;32.67;22.77;;;;;;;1.12;70.42;99141.28;1772046;81;21567;-39
2022/01/27 11:16:40;;;;;;;32.23;22.40;;;;;;;1.19;70.47;99142.45;1771981;81;22111;-39
2022/01/27 11:22:01;;;;;;;36.63;24.40;;;;;;;1.35;70.34;99130.88;1771953;81;20973;-39
2022/01/27 11:24:28;;;;;;;37.67;26.07;;;;;;;1.37;70.35;99125.20;1770554;81;21867;-39
2022/01/27 11:26:57;;;;;;;43.13;28.75;;;;;;;1.42;70.24;99130.42;1771832;81;21041;-39
2022/01/27 11:29:24;;;;;;;37.38;25.72;;;;;;;1.43;70.20;99123.45;1772034;81;20989;-40
2022/01/27 11:32:38;;;;;;;37.30;24.95;;;;;;;1.46;70.12;99124.72;1772061;81;21017;-39
2022/01/27 11:35:18;;;;;;;33.83;22.10;;;;;;;1.47;70.30;99122.29;1772108;81;21057;-39
2022/01/27 11:37:54;;;;;;;34.40;21.30;;;;;;;1.46;70.37;99120.70;1772225;81;21086;-40
2022/01/27 11:40:24;;;;;;;34.23;22.73;;;;;;;1.46;70.34;99120.16;1771012;81;21013;-39
2022/01/27 11:42:57;;;;;;;;;;;;;;;1.47;70.28;99121.75;1774628;81;21507;-39
2022/01/27 11:45:38;;;;;;;30.65;21.40;;;;;;;1.44;70.51;99121.58;1772186;80;20315;-39
2022/01/27 11:48:12;;;;;;;32.23;20.68;;;;;;;1.43;70.83;99117.32;1772347;81;21590;-39
2022/01/27 11:50:50;;;;;;;32.42;20.92;;;;;;;1.47;70.92;99120.95;1772062;81;21129;-40
2022/01/27 11:53:40;;;;;;;35.00;22.67;;;;;;;1.42;71.08;99119.20;1772041;80;21503;-39
2022/01/27 11:56:09;;;;;;;;;;;;;;;1.37;71.21;99115.86;1747008;81;21025;-39
2022/01/27 11:58:48;;;;;;;27.62;19.57;;;;;;;1.34;71.49;99116.48;1713705;83;20195;-40
2022/01/27 12:01:23;;;;;;;34.40;22.32;;;;;;;1.34;71.65;99109.80;1713570;82;21080;-39
2022/01/27 12:04:11;;;;;;;31.55;22.22;;;;;;;1.41;71.73;99116.28;1713059;82;21155;-40
2022/01/27 12:06:51;;;;;;;34.88;23.42;;;;;;;1.41;71.84;99109.60;1713483;83;20983;-40
2022/01/27 12:09:25;;;;;;;38.33;24.52;;;;;;;1.38;72.13;99113.44;1713728;82;21594;-41
2022/01/27 12:12:06;;;;;;;35.52;23.27;;;;;;;1.34;72.35;99108.47;1713786;82;21038;-40
2022/01/27 12:14:42;;;;;;;33.60;23.57;;;;;;;1.36;72.56;99106.27;1713950;82;21010;-40
2022/01/27 12:17:15;;;;;;;40.38;26.52;;;;;;;1.41;72.61;99101.59;1713648;82;22287;-40
2022/01/27 12:20:02;;;;;;;47.48;29.95;;;;;;;1.44;72.85;99105.55;1713499;82;21005;-40